Archival Weather

Westchester County

White Plains, New York (KHPN)

Report from: Friday, February 23, 2024 3:56 PM EST
Current time: Wednesday, May 29, 2024 8:56 PM EDT

Current weather – Weather history – Daily summaries
Weather forecast

Temperature7.2°C (45.0°F)
Wind chill4.5°C (40.1°F)
Dew point3.3°C (37.9°F)
Winds 8 kts (4.1 m/s, 9.2 mph) North (350°)
Visibility10 mi. (16.1 km)
Clouds Few clouds 5,000 ft. (1,524 m)
Altimeter29.43 in.Hg (997 mB)
Relative humidity76 %
Density altitude-264 ft. (-81 m)
Sea-level pressure99.7 kPa (997 mB, 29.44 in.Hg)
Remarks Automated weather observing station with precipitation discriminator
Pressure falling more quickly
Flight conditions Visual Meteorological Conditions
Raw dataKHPN 232056Z 35008KT 10SM FEW050 07/03 A2943 RMK AO2 SLP969 T00720033 58013
An error has occurred. This application may no longer respond until reloaded. Reload 🗙